sensor_id;sensor_type;location;lat;lon;timestamp;P1;durP1;ratioP1;P2;durP2;ratioP2
18322;SDS011;9287;49.456;11.064;2023-11-22T00:01:55;6.00;;;4.70;;
18322;SDS011;9287;49.456;11.064;2023-11-22T00:04:23;6.43;;;4.77;;
18322;SDS011;9287;49.456;11.064;2023-11-22T00:06:52;5.63;;;4.93;;
18322;SDS011;9287;49.456;11.064;2023-11-22T00:09:20;5.70;;;5.10;;
18322;SDS011;9287;49.456;11.064;2023-11-22T00:11:49;5.73;;;5.07;;
18322;SDS011;9287;49.456;11.064;2023-11-22T00:14:17;6.40;;;5.13;;
18322;SDS011;9287;49.456;11.064;2023-11-22T00:16:48;5.97;;;5.00;;
18322;SDS011;9287;49.456;11.064;2023-11-22T00:19:17;4.87;;;4.47;;
18322;SDS011;9287;49.456;11.064;2023-11-22T00:21:50;10.53;;;8.07;;
18322;SDS011;9287;49.456;11.064;2023-11-22T00:24:18;5.47;;;5.00;;
18322;SDS011;9287;49.456;11.064;2023-11-22T00:26:47;6.53;;;5.83;;
18322;SDS011;9287;49.456;11.064;2023-11-22T00:29:15;5.47;;;4.97;;
18322;SDS011;9287;49.456;11.064;2023-11-22T00:31:43;5.63;;;5.13;;
18322;SDS011;9287;49.456;11.064;2023-11-22T00:34:12;6.73;;;5.83;;
18322;SDS011;9287;49.456;11.064;2023-11-22T00:36:45;6.50;;;5.90;;
18322;SDS011;9287;49.456;11.064;2023-11-22T00:39:13;7.20;;;5.53;;
18322;SDS011;9287;49.456;11.064;2023-11-22T00:41:41;5.50;;;4.90;;
18322;SDS011;9287;49.456;11.064;2023-11-22T00:44:10;4.87;;;4.47;;
18322;SDS011;9287;49.456;11.064;2023-11-22T00:46:38;5.43;;;4.90;;
18322;SDS011;9287;49.456;11.064;2023-11-22T00:49:06;5.83;;;5.27;;
18322;SDS011;9287;49.456;11.064;2023-11-22T00:51:36;5.73;;;5.23;;
18322;SDS011;9287;49.456;11.064;2023-11-22T00:54:08;5.03;;;4.47;;
18322;SDS011;9287;49.456;11.064;2023-11-22T00:56:37;4.93;;;4.53;;
18322;SDS011;9287;49.456;11.064;2023-11-22T00:59:05;5.43;;;4.93;;
18322;SDS011;9287;49.456;11.064;2023-11-22T01:01:33;4.77;;;4.37;;
18322;SDS011;9287;49.456;11.064;2023-11-22T01:04:07;4.90;;;4.43;;
18322;SDS011;9287;49.456;11.064;2023-11-22T01:06:36;4.57;;;4.17;;
18322;SDS011;9287;49.456;11.064;2023-11-22T01:09:04;5.57;;;4.77;;
18322;SDS011;9287;49.456;11.064;2023-11-22T01:11:36;4.27;;;3.87;;
18322;SDS011;9287;49.456;11.064;2023-11-22T01:14:04;4.80;;;4.27;;
18322;SDS011;9287;49.456;11.064;2023-11-22T01:16:32;3.43;;;3.13;;
18322;SDS011;9287;49.456;11.064;2023-11-22T01:19:00;3.00;;;2.70;;
18322;SDS011;9287;49.456;11.064;2023-11-22T01:21:28;3.63;;;2.87;;
18322;SDS011;9287;49.456;11.064;2023-11-22T01:23:59;3.30;;;3.00;;
18322;SDS011;9287;49.456;11.064;2023-11-22T01:26:28;2.83;;;2.43;;
18322;SDS011;9287;49.456;11.064;2023-11-22T01:28:58;2.80;;;2.57;;
18322;SDS011;9287;49.456;11.064;2023-11-22T01:31:27;2.70;;;2.50;;
18322;SDS011;9287;49.456;11.064;2023-11-22T01:33:55;3.23;;;2.97;;
18322;SDS011;9287;49.456;11.064;2023-11-22T01:36:25;3.43;;;3.07;;
18322;SDS011;9287;49.456;11.064;2023-11-22T01:38:53;3.40;;;3.10;;
18322;SDS011;9287;49.456;11.064;2023-11-22T01:41:22;4.70;;;2.50;;
18322;SDS011;9287;49.456;11.064;2023-11-22T01:43:53;3.27;;;2.80;;
18322;SDS011;9287;49.456;11.064;2023-11-22T01:46:22;2.90;;;2.70;;
18322;SDS011;9287;49.456;11.064;2023-11-22T01:48:54;2.67;;;2.47;;
18322;SDS011;9287;49.456;11.064;2023-11-22T01:51:22;4.47;;;4.07;;
18322;SDS011;9287;49.456;11.064;2023-11-22T01:53:54;5.60;;;3.30;;
18322;SDS011;9287;49.456;11.064;2023-11-22T01:56:25;3.23;;;2.87;;
18322;SDS011;9287;49.456;11.064;2023-11-22T01:58:55;4.13;;;3.73;;
18322;SDS011;9287;49.456;11.064;2023-11-22T02:01:27;3.60;;;3.23;;
18322;SDS011;9287;49.456;11.064;2023-11-22T02:03:55;3.50;;;3.20;;
18322;SDS011;9287;49.456;11.064;2023-11-22T02:06:23;4.27;;;3.10;;
18322;SDS011;9287;49.456;11.064;2023-11-22T02:08:52;3.73;;;3.30;;
18322;SDS011;9287;49.456;11.064;2023-11-22T02:11:24;3.60;;;3.30;;
18322;SDS011;9287;49.456;11.064;2023-11-22T02:13:54;3.90;;;3.50;;
18322;SDS011;9287;49.456;11.064;2023-11-22T02:16:22;3.03;;;2.77;;
18322;SDS011;9287;49.456;11.064;2023-11-22T02:18:52;3.60;;;3.30;;
18322;SDS011;9287;49.456;11.064;2023-11-22T02:21:21;4.33;;;3.93;;
18322;SDS011;9287;49.456;11.064;2023-11-22T02:23:50;4.93;;;3.40;;
18322;SDS011;9287;49.456;11.064;2023-11-22T02:26:18;4.13;;;3.73;;
18322;SDS011;9287;49.456;11.064;2023-11-22T02:28:46;3.57;;;3.37;;
18322;SDS011;9287;49.456;11.064;2023-11-22T02:31:14;4.17;;;3.63;;
18322;SDS011;9287;49.456;11.064;2023-11-22T02:33:44;3.67;;;3.37;;
18322;SDS011;9287;49.456;11.064;2023-11-22T02:36:12;3.90;;;3.47;;
18322;SDS011;9287;49.456;11.064;2023-11-22T02:38:40;3.67;;;3.37;;
18322;SDS011;9287;49.456;11.064;2023-11-22T02:41:10;3.73;;;3.40;;
18322;SDS011;9287;49.456;11.064;2023-11-22T02:43:39;3.83;;;3.50;;
18322;SDS011;9287;49.456;11.064;2023-11-22T02:46:08;4.17;;;3.53;;
18322;SDS011;9287;49.456;11.064;2023-11-22T02:48:36;3.87;;;3.57;;
18322;SDS011;9287;49.456;11.064;2023-11-22T02:51:04;4.53;;;3.17;;
18322;SDS011;9287;49.456;11.064;2023-11-22T02:53:33;3.63;;;3.33;;
18322;SDS011;9287;49.456;11.064;2023-11-22T02:56:02;4.93;;;3.90;;
18322;SDS011;9287;49.456;11.064;2023-11-22T02:58:32;3.30;;;3.03;;
18322;SDS011;9287;49.456;11.064;2023-11-22T03:01:00;3.73;;;3.43;;
18322;SDS011;9287;49.456;11.064;2023-11-22T03:03:28;5.57;;;4.23;;
18322;SDS011;9287;49.456;11.064;2023-11-22T03:05:57;3.43;;;3.13;;
18322;SDS011;9287;49.456;11.064;2023-11-22T03:08:24;3.47;;;3.17;;
18322;SDS011;9287;49.456;11.064;2023-11-22T03:10:54;3.67;;;3.37;;
18322;SDS011;9287;49.456;11.064;2023-11-22T03:13:22;4.70;;;3.53;;
18322;SDS011;9287;49.456;11.064;2023-11-22T03:15:51;3.43;;;3.13;;
18322;SDS011;9287;49.456;11.064;2023-11-22T03:18:19;4.10;;;3.73;;
18322;SDS011;9287;49.456;11.064;2023-11-22T03:20:47;3.80;;;3.50;;
18322;SDS011;9287;49.456;11.064;2023-11-22T03:23:22;4.17;;;3.23;;
18322;SDS011;9287;49.456;11.064;2023-11-22T03:25:52;4.83;;;3.40;;
18322;SDS011;9287;49.456;11.064;2023-11-22T03:28:21;3.70;;;3.40;;
18322;SDS011;9287;49.456;11.064;2023-11-22T03:30:49;4.37;;;3.97;;
18322;SDS011;9287;49.456;11.064;2023-11-22T03:33:18;3.43;;;3.13;;
18322;SDS011;9287;49.456;11.064;2023-11-22T03:35:46;4.13;;;2.97;;
18322;SDS011;9287;49.456;11.064;2023-11-22T03:38:16;4.80;;;4.00;;
18322;SDS011;9287;49.456;11.064;2023-11-22T03:40:45;4.40;;;4.00;;
18322;SDS011;9287;49.456;11.064;2023-11-22T03:43:15;4.07;;;3.47;;
18322;SDS011;9287;49.456;11.064;2023-11-22T03:45:43;4.00;;;3.60;;
18322;SDS011;9287;49.456;11.064;2023-11-22T03:48:11;3.87;;;3.50;;
18322;SDS011;9287;49.456;11.064;2023-11-22T03:50:43;3.60;;;3.30;;
18322;SDS011;9287;49.456;11.064;2023-11-22T03:53:11;2.87;;;2.67;;
18322;SDS011;9287;49.456;11.064;2023-11-22T03:55:41;3.77;;;3.20;;
18322;SDS011;9287;49.456;11.064;2023-11-22T03:58:10;2.43;;;2.23;;
18322;SDS011;9287;49.456;11.064;2023-11-22T04:00:38;2.63;;;2.37;;
18322;SDS011;9287;49.456;11.064;2023-11-22T04:03:05;5.63;;;2.50;;
18322;SDS011;9287;49.456;11.064;2023-11-22T04:05:34;2.50;;;2.30;;
18322;SDS011;9287;49.456;11.064;2023-11-22T04:08:03;3.87;;;3.47;;
18322;SDS011;9287;49.456;11.064;2023-11-22T04:10:32;2.17;;;2.03;;
18322;SDS011;9287;49.456;11.064;2023-11-22T04:12:59;2.60;;;2.40;;
18322;SDS011;9287;49.456;11.064;2023-11-22T04:15:27;3.53;;;3.00;;
18322;SDS011;9287;49.456;11.064;2023-11-22T04:17:56;3.13;;;2.83;;
18322;SDS011;9287;49.456;11.064;2023-11-22T04:20:24;2.77;;;2.50;;
18322;SDS011;9287;49.456;11.064;2023-11-22T04:22:54;2.87;;;2.20;;
18322;SDS011;9287;49.456;11.064;2023-11-22T04:25:24;2.37;;;2.10;;
18322;SDS011;9287;49.456;11.064;2023-11-22T04:27:53;2.10;;;1.90;;
18322;SDS011;9287;49.456;11.064;2023-11-22T04:30:21;2.90;;;2.53;;
18322;SDS011;9287;49.456;11.064;2023-11-22T04:32:50;2.70;;;2.47;;
18322;SDS011;9287;49.456;11.064;2023-11-22T04:35:17;2.73;;;2.53;;
18322;SDS011;9287;49.456;11.064;2023-11-22T04:37:46;2.80;;;2.60;;
18322;SDS011;9287;49.456;11.064;2023-11-22T04:40:14;3.40;;;3.10;;
18322;SDS011;9287;49.456;11.064;2023-11-22T04:42:43;3.93;;;3.53;;
18322;SDS011;9287;49.456;11.064;2023-11-22T04:45:11;3.97;;;3.67;;
18322;SDS011;9287;49.456;11.064;2023-11-22T04:47:39;5.40;;;3.77;;
18322;SDS011;9287;49.456;11.064;2023-11-22T04:50:08;4.13;;;3.57;;
18322;SDS011;9287;49.456;11.064;2023-11-22T04:52:38;5.23;;;4.00;;
18322;SDS011;9287;49.456;11.064;2023-11-22T04:55:07;5.00;;;4.50;;
18322;SDS011;9287;49.456;11.064;2023-11-22T04:57:35;4.87;;;4.27;;
18322;SDS011;9287;49.456;11.064;2023-11-22T05:00:06;4.07;;;3.77;;
18322;SDS011;9287;49.456;11.064;2023-11-22T05:02:35;7.60;;;4.47;;
18322;SDS011;9287;49.456;11.064;2023-11-22T05:05:04;5.40;;;3.83;;
18322;SDS011;9287;49.456;11.064;2023-11-22T05:07:33;4.10;;;3.70;;
18322;SDS011;9287;49.456;11.064;2023-11-22T05:10:00;4.30;;;3.90;;
18322;SDS011;9287;49.456;11.064;2023-11-22T05:12:30;4.53;;;4.13;;
18322;SDS011;9287;49.456;11.064;2023-11-22T05:14:58;4.27;;;3.97;;
18322;SDS011;9287;49.456;11.064;2023-11-22T05:17:27;5.00;;;4.50;;
18322;SDS011;9287;49.456;11.064;2023-11-22T05:19:55;4.80;;;4.30;;
18322;SDS011;9287;49.456;11.064;2023-11-22T05:22:22;4.70;;;4.30;;
18322;SDS011;9287;49.456;11.064;2023-11-22T05:24:50;5.10;;;4.00;;
18322;SDS011;9287;49.456;11.064;2023-11-22T05:27:18;4.47;;;4.07;;
18322;SDS011;9287;49.456;11.064;2023-11-22T05:29:46;7.50;;;4.33;;
18322;SDS011;9287;49.456;11.064;2023-11-22T05:32:20;5.53;;;4.53;;
18322;SDS011;9287;49.456;11.064;2023-11-22T05:34:50;5.43;;;4.60;;
18322;SDS011;9287;49.456;11.064;2023-11-22T05:37:18;8.13;;;5.00;;
18322;SDS011;9287;49.456;11.064;2023-11-22T05:39:46;4.93;;;4.40;;
18322;SDS011;9287;49.456;11.064;2023-11-22T05:42:14;5.93;;;4.90;;
18322;SDS011;9287;49.456;11.064;2023-11-22T05:44:42;5.47;;;4.50;;
18322;SDS011;9287;49.456;11.064;2023-11-22T05:47:10;7.07;;;5.30;;
18322;SDS011;9287;49.456;11.064;2023-11-22T05:49:39;5.47;;;4.90;;
18322;SDS011;9287;49.456;11.064;2023-11-22T05:52:09;5.17;;;4.60;;
18322;SDS011;9287;49.456;11.064;2023-11-22T05:54:37;5.63;;;5.00;;
18322;SDS011;9287;49.456;11.064;2023-11-22T05:57:06;6.03;;;5.43;;
18322;SDS011;9287;49.456;11.064;2023-11-22T05:59:36;5.70;;;5.17;;
18322;SDS011;9287;49.456;11.064;2023-11-22T06:02:04;6.03;;;5.43;;
18322;SDS011;9287;49.456;11.064;2023-11-22T06:04:33;7.83;;;5.80;;
18322;SDS011;9287;49.456;11.064;2023-11-22T06:07:04;7.23;;;5.90;;
18322;SDS011;9287;49.456;11.064;2023-11-22T06:09:34;7.00;;;6.27;;
18322;SDS011;9287;49.456;11.064;2023-11-22T06:12:03;6.57;;;5.93;;
18322;SDS011;9287;49.456;11.064;2023-11-22T06:14:32;6.73;;;6.03;;
18322;SDS011;9287;49.456;11.064;2023-11-22T06:17:04;6.83;;;6.13;;
18322;SDS011;9287;49.456;11.064;2023-11-22T06:19:33;9.17;;;7.00;;
18322;SDS011;9287;49.456;11.064;2023-11-22T06:22:02;9.20;;;6.83;;
18322;SDS011;9287;49.456;11.064;2023-11-22T06:24:30;8.13;;;6.80;;
18322;SDS011;9287;49.456;11.064;2023-11-22T06:27:01;8.63;;;7.07;;
18322;SDS011;9287;49.456;11.064;2023-11-22T06:29:30;7.43;;;6.60;;
18322;SDS011;9287;49.456;11.064;2023-11-22T06:32:00;7.00;;;6.30;;
18322;SDS011;9287;49.456;11.064;2023-11-22T06:34:33;8.03;;;7.20;;
18322;SDS011;9287;49.456;11.064;2023-11-22T06:37:04;8.77;;;7.10;;
18322;SDS011;9287;49.456;11.064;2023-11-22T06:39:34;8.13;;;6.70;;
18322;SDS011;9287;49.456;11.064;2023-11-22T06:42:05;8.10;;;6.90;;
18322;SDS011;9287;49.456;11.064;2023-11-22T06:44:33;8.67;;;7.73;;
18322;SDS011;9287;49.456;11.064;2023-11-22T06:47:02;9.87;;;7.97;;
18322;SDS011;9287;49.456;11.064;2023-11-22T06:49:30;8.90;;;7.60;;
18322;SDS011;9287;49.456;11.064;2023-11-22T06:51:59;9.60;;;7.43;;
18322;SDS011;9287;49.456;11.064;2023-11-22T06:54:27;9.20;;;7.83;;
18322;SDS011;9287;49.456;11.064;2023-11-22T06:56:55;7.73;;;6.87;;
18322;SDS011;9287;49.456;11.064;2023-11-22T06:59:24;7.13;;;6.43;;
18322;SDS011;9287;49.456;11.064;2023-11-22T07:01:51;9.40;;;7.43;;
18322;SDS011;9287;49.456;11.064;2023-11-22T07:04:19;10.07;;;7.57;;
18322;SDS011;9287;49.456;11.064;2023-11-22T07:06:48;8.60;;;7.23;;
18322;SDS011;9287;49.456;11.064;2023-11-22T07:09:17;8.23;;;7.37;;
18322;SDS011;9287;49.456;11.064;2023-11-22T07:11:45;8.73;;;6.97;;
18322;SDS011;9287;49.456;11.064;2023-11-22T07:14:13;9.57;;;7.53;;
18322;SDS011;9287;49.456;11.064;2023-11-22T07:16:44;9.97;;;7.80;;
18322;SDS011;9287;49.456;11.064;2023-11-22T07:19:12;9.90;;;8.50;;
18322;SDS011;9287;49.456;11.064;2023-11-22T07:21:40;9.87;;;8.40;;
18322;SDS011;9287;49.456;11.064;2023-11-22T07:24:08;10.00;;;8.13;;
18322;SDS011;9287;49.456;11.064;2023-11-22T07:26:40;9.23;;;8.07;;
18322;SDS011;9287;49.456;11.064;2023-11-22T07:29:08;10.17;;;8.47;;
18322;SDS011;9287;49.456;11.064;2023-11-22T07:31:38;8.80;;;7.23;;
18322;SDS011;9287;49.456;11.064;2023-11-22T07:34:07;9.23;;;7.13;;
18322;SDS011;9287;49.456;11.064;2023-11-22T07:36:37;9.20;;;7.93;;
18322;SDS011;9287;49.456;11.064;2023-11-22T07:39:06;7.60;;;6.80;;
18322;SDS011;9287;49.456;11.064;2023-11-22T07:41:34;8.73;;;7.83;;
18322;SDS011;9287;49.456;11.064;2023-11-22T07:44:03;9.57;;;8.00;;
18322;SDS011;9287;49.456;11.064;2023-11-22T07:46:31;9.67;;;7.60;;
18322;SDS011;9287;49.456;11.064;2023-11-22T07:48:59;9.27;;;7.97;;
18322;SDS011;9287;49.456;11.064;2023-11-22T07:51:28;10.60;;;8.37;;
18322;SDS011;9287;49.456;11.064;2023-11-22T07:53:56;10.53;;;8.10;;
18322;SDS011;9287;49.456;11.064;2023-11-22T07:56:24;12.77;;;8.93;;
18322;SDS011;9287;49.456;11.064;2023-11-22T07:58:52;11.83;;;8.93;;
18322;SDS011;9287;49.456;11.064;2023-11-22T08:01:20;11.37;;;9.40;;
18322;SDS011;9287;49.456;11.064;2023-11-22T08:03:48;13.73;;;10.93;;
18322;SDS011;9287;49.456;11.064;2023-11-22T08:06:18;10.03;;;8.90;;
18322;SDS011;9287;49.456;11.064;2023-11-22T08:08:48;12.30;;;10.27;;
18322;SDS011;9287;49.456;11.064;2023-11-22T08:11:17;13.87;;;10.03;;
18322;SDS011;9287;49.456;11.064;2023-11-22T08:13:45;15.00;;;10.93;;
18322;SDS011;9287;49.456;11.064;2023-11-22T08:16:14;14.53;;;10.30;;
18322;SDS011;9287;49.456;11.064;2023-11-22T08:18:42;13.87;;;10.30;;
18322;SDS011;9287;49.456;11.064;2023-11-22T08:21:10;12.80;;;9.53;;
18322;SDS011;9287;49.456;11.064;2023-11-22T08:23:40;12.87;;;9.67;;
18322;SDS011;9287;49.456;11.064;2023-11-22T08:26:10;13.17;;;9.07;;
18322;SDS011;9287;49.456;11.064;2023-11-22T08:28:38;11.47;;;9.40;;
18322;SDS011;9287;49.456;11.064;2023-11-22T08:31:07;12.50;;;9.47;;
18322;SDS011;9287;49.456;11.064;2023-11-22T08:33:36;12.00;;;9.63;;
18322;SDS011;9287;49.456;11.064;2023-11-22T08:36:05;11.10;;;9.53;;
18322;SDS011;9287;49.456;11.064;2023-11-22T08:38:33;11.63;;;9.27;;
18322;SDS011;9287;49.456;11.064;2023-11-22T08:41:01;13.60;;;9.60;;
18322;SDS011;9287;49.456;11.064;2023-11-22T08:43:31;12.87;;;9.63;;
18322;SDS011;9287;49.456;11.064;2023-11-22T08:45:59;11.37;;;9.97;;
18322;SDS011;9287;49.456;11.064;2023-11-22T08:48:39;12.47;;;9.17;;
18322;SDS011;9287;49.456;11.064;2023-11-22T08:51:08;10.23;;;9.20;;
18322;SDS011;9287;49.456;11.064;2023-11-22T08:53:37;11.27;;;9.20;;
18322;SDS011;9287;49.456;11.064;2023-11-22T08:56:05;11.23;;;9.23;;
18322;SDS011;9287;49.456;11.064;2023-11-22T08:58:37;15.87;;;9.87;;
18322;SDS011;9287;49.456;11.064;2023-11-22T09:01:06;11.43;;;9.57;;
18322;SDS011;9287;49.456;11.064;2023-11-22T09:03:34;13.47;;;10.00;;
18322;SDS011;9287;49.456;11.064;2023-11-22T09:06:03;12.57;;;10.23;;
18322;SDS011;9287;49.456;11.064;2023-11-22T09:08:33;14.10;;;10.03;;
18322;SDS011;9287;49.456;11.064;2023-11-22T09:11:02;11.07;;;9.37;;
18322;SDS011;9287;49.456;11.064;2023-11-22T09:13:32;10.83;;;9.37;;
18322;SDS011;9287;49.456;11.064;2023-11-22T09:16:03;10.60;;;9.50;;
18322;SDS011;9287;49.456;11.064;2023-11-22T09:18:32;11.40;;;8.20;;
18322;SDS011;9287;49.456;11.064;2023-11-22T09:21:00;10.77;;;8.57;;
18322;SDS011;9287;49.456;11.064;2023-11-22T09:23:28;9.87;;;8.67;;
18322;SDS011;9287;49.456;11.064;2023-11-22T09:25:56;10.63;;;8.53;;
18322;SDS011;9287;49.456;11.064;2023-11-22T09:28:24;10.37;;;8.30;;
18322;SDS011;9287;49.456;11.064;2023-11-22T09:30:52;10.67;;;8.67;;
18322;SDS011;9287;49.456;11.064;2023-11-22T09:33:28;10.47;;;8.90;;
18322;SDS011;9287;49.456;11.064;2023-11-22T09:35:56;10.33;;;8.70;;
18322;SDS011;9287;49.456;11.064;2023-11-22T09:38:25;11.07;;;8.50;;
18322;SDS011;9287;49.456;11.064;2023-11-22T09:40:53;11.07;;;8.80;;
18322;SDS011;9287;49.456;11.064;2023-11-22T09:43:20;10.07;;;8.63;;
18322;SDS011;9287;49.456;11.064;2023-11-22T09:45:50;12.67;;;8.53;;
18322;SDS011;9287;49.456;11.064;2023-11-22T09:48:24;10.13;;;8.53;;
18322;SDS011;9287;49.456;11.064;2023-11-22T09:51:02;10.93;;;8.40;;
18322;SDS011;9287;49.456;11.064;2023-11-22T09:53:32;11.60;;;9.17;;
18322;SDS011;9287;49.456;11.064;2023-11-22T09:56:02;11.80;;;8.90;;
18322;SDS011;9287;49.456;11.064;2023-11-22T09:58:33;11.53;;;8.87;;
18322;SDS011;9287;49.456;11.064;2023-11-22T10:01:02;12.47;;;9.33;;
18322;SDS011;9287;49.456;11.064;2023-11-22T10:03:31;11.13;;;8.40;;
18322;SDS011;9287;49.456;11.064;2023-11-22T10:06:01;9.87;;;8.47;;
18322;SDS011;9287;49.456;11.064;2023-11-22T10:08:31;11.23;;;8.47;;
18322;SDS011;9287;49.456;11.064;2023-11-22T10:10:59;10.80;;;8.30;;
18322;SDS011;9287;49.456;11.064;2023-11-22T10:13:27;9.77;;;7.73;;
18322;SDS011;9287;49.456;11.064;2023-11-22T10:15:55;9.60;;;8.20;;
18322;SDS011;9287;49.456;11.064;2023-11-22T10:18:38;12.30;;;8.33;;
18322;SDS011;9287;49.456;11.064;2023-11-22T10:23:54;8.77;;;7.17;;
18322;SDS011;9287;49.456;11.064;2023-11-22T10:26:23;11.17;;;7.87;;
18322;SDS011;9287;49.456;11.064;2023-11-22T10:28:53;8.83;;;7.97;;
18322;SDS011;9287;49.456;11.064;2023-11-22T10:31:23;10.03;;;8.53;;
18322;SDS011;9287;49.456;11.064;2023-11-22T10:33:51;10.53;;;8.20;;
18322;SDS011;9287;49.456;11.064;2023-11-22T10:36:25;10.03;;;8.33;;
18322;SDS011;9287;49.456;11.064;2023-11-22T10:38:54;9.17;;;8.20;;
18322;SDS011;9287;49.456;11.064;2023-11-22T10:41:22;9.50;;;7.20;;
18322;SDS011;9287;49.456;11.064;2023-11-22T10:43:50;9.00;;;7.33;;
18322;SDS011;9287;49.456;11.064;2023-11-22T10:46:20;7.07;;;6.37;;
18322;SDS011;9287;49.456;11.064;2023-11-22T10:48:54;9.80;;;7.67;;
18322;SDS011;9287;49.456;11.064;2023-11-22T10:51:23;10.43;;;7.33;;
18322;SDS011;9287;49.456;11.064;2023-11-22T10:53:59;8.43;;;7.47;;
18322;SDS011;9287;49.456;11.064;2023-11-22T10:56:31;9.17;;;7.07;;
18322;SDS011;9287;49.456;11.064;2023-11-22T10:59:06;8.43;;;7.13;;
18322;SDS011;9287;49.456;11.064;2023-11-22T11:01:39;9.00;;;6.23;;
18322;SDS011;9287;49.456;11.064;2023-11-22T11:04:15;8.70;;;7.00;;
18322;SDS011;9287;49.456;11.064;2023-11-22T11:06:56;8.37;;;6.33;;
18322;SDS011;9287;49.456;11.064;2023-11-22T11:09:24;7.07;;;5.93;;
18322;SDS011;9287;49.456;11.064;2023-11-22T11:11:59;7.80;;;6.80;;
18322;SDS011;9287;49.456;11.064;2023-11-22T11:14:34;8.97;;;7.10;;
18322;SDS011;9287;49.456;11.064;2023-11-22T11:17:02;8.63;;;7.17;;
18322;SDS011;9287;49.456;11.064;2023-11-22T11:19:31;8.57;;;7.23;;
18322;SDS011;9287;49.456;11.064;2023-11-22T11:22:02;8.20;;;6.60;;
18322;SDS011;9287;49.456;11.064;2023-11-22T11:24:36;7.67;;;6.87;;
18322;SDS011;9287;49.456;11.064;2023-11-22T11:27:05;7.80;;;6.43;;
18322;SDS011;9287;49.456;11.064;2023-11-22T11:29:35;8.23;;;7.17;;
18322;SDS011;9287;49.456;11.064;2023-11-22T11:32:09;10.00;;;6.83;;
18322;SDS011;9287;49.456;11.064;2023-11-22T11:34:48;7.13;;;6.20;;
18322;SDS011;9287;49.456;11.064;2023-11-22T11:37:19;7.77;;;6.93;;
18322;SDS011;9287;49.456;11.064;2023-11-22T11:39:47;8.23;;;6.50;;
18322;SDS011;9287;49.456;11.064;2023-11-22T11:42:15;8.27;;;6.53;;
18322;SDS011;9287;49.456;11.064;2023-11-22T11:44:51;10.83;;;7.70;;
18322;SDS011;9287;49.456;11.064;2023-11-22T11:47:31;8.47;;;6.67;;
18322;SDS011;9287;49.456;11.064;2023-11-22T11:49:59;9.33;;;6.87;;
18322;SDS011;9287;49.456;11.064;2023-11-22T11:52:29;9.57;;;6.70;;
18322;SDS011;9287;49.456;11.064;2023-11-22T11:54:57;9.07;;;6.47;;
18322;SDS011;9287;49.456;11.064;2023-11-22T11:57:30;8.63;;;6.97;;
18322;SDS011;9287;49.456;11.064;2023-11-22T11:59:58;7.87;;;6.23;;
18322;SDS011;9287;49.456;11.064;2023-11-22T12:02:26;9.23;;;7.17;;
18322;SDS011;9287;49.456;11.064;2023-11-22T12:04:55;8.93;;;6.17;;
18322;SDS011;9287;49.456;11.064;2023-11-22T12:07:23;8.57;;;6.77;;
18322;SDS011;9287;49.456;11.064;2023-11-22T12:09:52;8.07;;;6.60;;
18322;SDS011;9287;49.456;11.064;2023-11-22T12:12:20;9.13;;;7.13;;
18322;SDS011;9287;49.456;11.064;2023-11-22T12:14:50;8.47;;;7.33;;
18322;SDS011;9287;49.456;11.064;2023-11-22T12:17:18;8.27;;;5.93;;
18322;SDS011;9287;49.456;11.064;2023-11-22T12:19:47;8.33;;;6.57;;
18322;SDS011;9287;49.456;11.064;2023-11-22T12:22:15;10.57;;;6.87;;
18322;SDS011;9287;49.456;11.064;2023-11-22T12:24:43;8.17;;;7.10;;
18322;SDS011;9287;49.456;11.064;2023-11-22T12:27:13;7.07;;;6.37;;
18322;SDS011;9287;49.456;11.064;2023-11-22T12:29:41;6.90;;;6.20;;
18322;SDS011;9287;49.456;11.064;2023-11-22T12:32:09;7.70;;;6.90;;
18322;SDS011;9287;49.456;11.064;2023-11-22T12:34:37;6.57;;;5.73;;
18322;SDS011;9287;49.456;11.064;2023-11-22T12:37:07;7.40;;;5.97;;
18322;SDS011;9287;49.456;11.064;2023-11-22T12:39:36;7.27;;;5.97;;
18322;SDS011;9287;49.456;11.064;2023-11-22T12:42:04;7.93;;;6.80;;
18322;SDS011;9287;49.456;11.064;2023-11-22T12:44:48;8.00;;;6.57;;
18322;SDS011;9287;49.456;11.064;2023-11-22T12:47:30;8.10;;;6.70;;
18322;SDS011;9287;49.456;11.064;2023-11-22T12:50:01;8.33;;;7.13;;
18322;SDS011;9287;49.456;11.064;2023-11-22T12:52:30;7.53;;;6.57;;
18322;SDS011;9287;49.456;11.064;2023-11-22T12:54:59;9.23;;;6.87;;
18322;SDS011;9287;49.456;11.064;2023-11-22T12:57:27;10.77;;;6.57;;
18322;SDS011;9287;49.456;11.064;2023-11-22T12:59:56;8.30;;;6.63;;
18322;SDS011;9287;49.456;11.064;2023-11-22T13:02:24;9.43;;;6.63;;
18322;SDS011;9287;49.456;11.064;2023-11-22T13:04:52;7.53;;;6.73;;
18322;SDS011;9287;49.456;11.064;2023-11-22T13:07:21;8.20;;;6.90;;
18322;SDS011;9287;49.456;11.064;2023-11-22T13:09:52;7.37;;;6.23;;
18322;SDS011;9287;49.456;11.064;2023-11-22T13:12:20;7.30;;;6.60;;
18322;SDS011;9287;49.456;11.064;2023-11-22T13:14:48;6.57;;;5.93;;
18322;SDS011;9287;49.456;11.064;2023-11-22T13:17:18;7.73;;;6.63;;
18322;SDS011;9287;49.456;11.064;2023-11-22T13:19:46;7.70;;;6.60;;
18322;SDS011;9287;49.456;11.064;2023-11-22T13:22:15;6.87;;;5.70;;
18322;SDS011;9287;49.456;11.064;2023-11-22T13:24:45;7.37;;;6.10;;
18322;SDS011;9287;49.456;11.064;2023-11-22T13:27:13;7.73;;;6.83;;
18322;SDS011;9287;49.456;11.064;2023-11-22T13:29:41;6.57;;;5.90;;
18322;SDS011;9287;49.456;11.064;2023-11-22T13:32:10;7.67;;;6.37;;
18322;SDS011;9287;49.456;11.064;2023-11-22T13:34:39;8.63;;;6.60;;
18322;SDS011;9287;49.456;11.064;2023-11-22T13:37:07;7.70;;;6.57;;
18322;SDS011;9287;49.456;11.064;2023-11-22T13:39:35;8.60;;;6.60;;
18322;SDS011;9287;49.456;11.064;2023-11-22T13:42:03;7.77;;;6.63;;
18322;SDS011;9287;49.456;11.064;2023-11-22T13:44:31;6.83;;;6.10;;
18322;SDS011;9287;49.456;11.064;2023-11-22T13:46:59;7.60;;;6.80;;
18322;SDS011;9287;49.456;11.064;2023-11-22T13:49:27;8.77;;;7.00;;
18322;SDS011;9287;49.456;11.064;2023-11-22T13:51:59;10.03;;;6.93;;
18322;SDS011;9287;49.456;11.064;2023-11-22T13:54:28;8.30;;;7.27;;
18322;SDS011;9287;49.456;11.064;2023-11-22T13:56:55;7.30;;;6.53;;
18322;SDS011;9287;49.456;11.064;2023-11-22T13:59:25;8.07;;;6.87;;
18322;SDS011;9287;49.456;11.064;2023-11-22T14:01:53;8.37;;;6.37;;
18322;SDS011;9287;49.456;11.064;2023-11-22T14:04:24;8.43;;;7.23;;
18322;SDS011;9287;49.456;11.064;2023-11-22T14:06:52;7.53;;;6.70;;
18322;SDS011;9287;49.456;11.064;2023-11-22T14:09:21;9.70;;;6.93;;
18322;SDS011;9287;49.456;11.064;2023-11-22T14:11:49;8.80;;;7.37;;
18322;SDS011;9287;49.456;11.064;2023-11-22T14:14:17;10.80;;;7.70;;
18322;SDS011;9287;49.456;11.064;2023-11-22T14:16:45;9.73;;;7.40;;
18322;SDS011;9287;49.456;11.064;2023-11-22T14:19:15;8.50;;;7.57;;
18322;SDS011;9287;49.456;11.064;2023-11-22T14:21:45;8.37;;;7.47;;
18322;SDS011;9287;49.456;11.064;2023-11-22T14:24:13;8.03;;;6.63;;
18322;SDS011;9287;49.456;11.064;2023-11-22T14:26:42;10.70;;;7.53;;
18322;SDS011;9287;49.456;11.064;2023-11-22T14:29:13;8.43;;;6.87;;
18322;SDS011;9287;49.456;11.064;2023-11-22T14:31:41;9.10;;;7.17;;
18322;SDS011;9287;49.456;11.064;2023-11-22T14:34:09;9.20;;;6.60;;
18322;SDS011;9287;49.456;11.064;2023-11-22T14:36:38;8.10;;;7.23;;
18322;SDS011;9287;49.456;11.064;2023-11-22T14:39:06;11.00;;;7.53;;
18322;SDS011;9287;49.456;11.064;2023-11-22T14:41:38;9.23;;;7.53;;
18322;SDS011;9287;49.456;11.064;2023-11-22T14:44:07;9.30;;;6.97;;
18322;SDS011;9287;49.456;11.064;2023-11-22T14:46:35;9.57;;;8.03;;
18322;SDS011;9287;49.456;11.064;2023-11-22T14:49:03;8.37;;;7.33;;
18322;SDS011;9287;49.456;11.064;2023-11-22T14:51:32;8.47;;;7.43;;
18322;SDS011;9287;49.456;11.064;2023-11-22T14:54:01;9.40;;;7.37;;
18322;SDS011;9287;49.456;11.064;2023-11-22T14:56:29;9.10;;;7.50;;
18322;SDS011;9287;49.456;11.064;2023-11-22T14:58:58;8.70;;;7.70;;
18322;SDS011;9287;49.456;11.064;2023-11-22T15:01:27;7.80;;;6.87;;